createdAt,value
2023-01-12T00:02:20.124Z,10.60
2023-01-12T00:07:23.871Z,10.60
2023-01-12T00:12:27.051Z,10.50
2023-01-12T00:17:31.549Z,10.50
2023-01-12T00:22:34.772Z,10.50
2023-01-12T00:27:37.883Z,10.50
2023-01-12T00:32:42.463Z,10.40
2023-01-12T00:37:45.610Z,10.40
2023-01-12T00:43:06.012Z,10.40
2023-01-12T00:48:12.814Z,10.30
2023-01-12T00:53:16.901Z,10.30
2023-01-12T00:58:20.042Z,10.30
2023-01-12T01:03:24.611Z,10.20
2023-01-12T01:08:27.788Z,10.20
2023-01-12T01:13:31.163Z,10.10
2023-01-12T01:18:36.371Z,10.10
2023-01-12T01:23:40.687Z,10.10
2023-01-12T01:28:44.898Z,10.00
2023-01-12T01:33:50.137Z,9.80
2023-01-12T01:38:53.372Z,9.80
2023-01-12T01:43:59.791Z,9.70
2023-01-12T01:49:15.193Z,9.70
2023-01-12T01:54:18.563Z,9.60
2023-01-12T01:59:24.669Z,9.60
2023-01-12T02:04:29.369Z,9.60
2023-01-12T02:09:32.833Z,9.60
2023-01-12T02:14:53.170Z,9.60
2023-01-12T02:20:39.982Z,9.60
2023-01-12T02:26:07.852Z,9.60
2023-01-12T02:31:42.253Z,9.50
2023-01-12T02:36:52.488Z,9.50
2023-01-12T02:42:23.420Z,9.50
2023-01-12T02:47:45.398Z,9.50
2023-01-12T02:52:55.189Z,9.40
2023-01-12T02:57:59.286Z,9.40
2023-01-12T03:03:03.757Z,9.40
2023-01-12T03:08:07.448Z,9.30
2023-01-12T03:13:14.816Z,9.20
2023-01-12T03:18:25.383Z,9.20
2023-01-12T03:23:35.845Z,9.20
2023-01-12T03:28:43.219Z,9.30
2023-01-12T03:33:47.825Z,9.30
2023-01-12T03:39:12.580Z,9.30
2023-01-12T03:44:21.042Z,9.30
2023-01-12T03:49:30.830Z,9.30
2023-01-12T03:54:35.662Z,9.30
2023-01-12T03:59:38.909Z,9.20
2023-01-12T04:04:43.519Z,9.20
2023-01-12T04:09:46.681Z,9.20
2023-01-12T04:14:50.132Z,9.20
2023-01-12T04:19:54.618Z,9.20
2023-01-12T04:24:57.694Z,9.20
2023-01-12T04:30:00.832Z,9.20
2023-01-12T04:35:06.241Z,9.20
2023-01-12T04:40:11.330Z,9.30
2023-01-12T04:45:14.486Z,9.30
2023-01-12T04:50:19.109Z,9.30
2023-01-12T04:55:22.198Z,9.20
2023-01-12T05:00:25.937Z,9.20
2023-01-12T05:05:31.616Z,9.20
2023-01-12T05:10:34.730Z,9.20
2023-01-12T05:15:37.793Z,9.20
2023-01-12T05:20:42.250Z,9.20
2023-01-12T05:25:45.321Z,9.20
2023-01-12T05:30:48.484Z,9.30
2023-01-12T05:35:52.951Z,9.30
2023-01-12T05:40:56.054Z,9.20
2023-01-12T05:46:03.574Z,9.20
2023-01-12T05:51:10.150Z,9.20
2023-01-12T05:56:18.484Z,9.20
2023-01-12T06:01:22.218Z,9.20
2023-01-12T06:06:30.645Z,9.20
2023-01-12T06:11:51.047Z,9.20
2023-01-12T06:16:54.142Z,9.10
2023-01-12T06:21:59.630Z,9.10
2023-01-12T06:27:03.045Z,9.20
2023-01-12T06:32:06.348Z,9.20
2023-01-12T06:37:13.065Z,9.20
2023-01-12T06:42:31.922Z,9.20
2023-01-12T06:47:35.115Z,9.30
2023-01-12T06:52:39.683Z,9.30
2023-01-12T06:57:42.863Z,9.30
2023-01-12T07:02:46.084Z,9.30
2023-01-12T07:07:50.582Z,9.30
2023-01-12T07:12:53.660Z,9.30
2023-01-12T07:17:57.325Z,9.30
2023-01-12T07:23:01.983Z,9.30
2023-01-12T07:28:05.270Z,9.30
2023-01-12T07:33:09.283Z,9.30
2023-01-12T07:38:13.760Z,9.30
2023-01-12T07:43:19.077Z,9.30
2023-01-12T07:48:22.844Z,9.30
2023-01-12T07:53:27.627Z,9.30
2023-01-12T07:58:30.932Z,9.30
2023-01-12T08:03:34.089Z,9.30
2023-01-12T08:08:38.574Z,9.40
2023-01-12T08:13:41.793Z,9.40
2023-01-12T08:18:49.320Z,9.40
2023-01-12T08:23:58.805Z,9.50
2023-01-12T08:29:06.061Z,9.50
2023-01-12T08:34:10.732Z,9.50
2023-01-12T08:39:15.278Z,9.60
2023-01-12T08:44:18.405Z,9.50
2023-01-12T08:49:24.342Z,9.70
2023-01-12T08:54:29.024Z,9.80
2023-01-12T08:59:32.168Z,9.80
2023-01-12T09:04:35.294Z,9.90
2023-01-12T09:09:40.035Z,10.00
2023-01-12T09:14:43.131Z,10.10
2023-01-12T09:19:49.861Z,10.20
2023-01-12T09:24:54.333Z,10.30
2023-01-12T09:29:57.425Z,10.40
2023-01-12T09:35:00.625Z,10.50
2023-01-12T09:40:05.802Z,10.50
2023-01-12T09:45:39.633Z,10.60
2023-01-12T09:50:46.552Z,10.80
2023-01-12T09:55:57.760Z,10.80
2023-01-12T10:01:10.618Z,10.90
2023-01-12T10:06:17.415Z,10.90
2023-01-12T10:11:26.934Z,11.00
2023-01-12T10:16:41.828Z,11.10
2023-01-12T10:21:45.287Z,11.20
2023-01-12T10:26:57.041Z,11.30
2023-01-12T10:32:00.441Z,11.40
2023-01-12T10:37:10.441Z,11.50
2023-01-12T10:42:41.396Z,11.60
2023-01-12T10:47:45.375Z,11.70
2023-01-12T10:52:50.788Z,11.70
2023-01-12T10:57:55.766Z,11.80
2023-01-12T11:02:59.242Z,11.80
2023-01-12T11:08:02.626Z,11.90
2023-01-12T11:13:08.954Z,12.00
2023-01-12T11:18:32.408Z,12.00
2023-01-12T11:23:40.186Z,12.10
2023-01-12T11:28:48.625Z,12.10
2023-01-12T11:33:57.107Z,12.10
2023-01-12T11:39:04.207Z,12.10
2023-01-12T11:44:14.811Z,12.20
2023-01-12T11:49:24.172Z,12.20
2023-01-12T11:54:29.461Z,12.20
2023-01-12T11:59:43.581Z,12.20
2023-01-12T12:05:00.848Z,12.20
2023-01-12T12:10:21.255Z,12.20
2023-01-12T12:15:33.646Z,12.20
2023-01-12T12:20:44.334Z,12.30
2023-01-12T12:25:57.498Z,12.30
2023-01-12T12:31:13.896Z,12.30
2023-01-12T12:36:23.873Z,12.40
2023-01-12T12:41:55.542Z,12.40
2023-01-12T12:47:09.146Z,12.40
2023-01-12T12:52:13.914Z,12.50
2023-01-12T12:57:17.290Z,12.50
2023-01-12T13:02:38.681Z,12.60
2023-01-12T13:07:52.157Z,12.60
2023-01-12T13:13:05.253Z,12.50
2023-01-12T13:18:42.077Z,12.50
2023-01-12T13:23:50.711Z,12.50
2023-01-12T13:29:27.324Z,12.50
2023-01-12T13:34:46.148Z,12.40
2023-01-12T13:39:57.033Z,12.40
2023-01-12T13:45:00.182Z,12.40
2023-01-12T13:50:05.505Z,12.40
2023-01-12T13:55:20.591Z,12.40
2023-01-12T14:00:24.806Z,12.40
2023-01-12T14:05:44.933Z,12.50
2023-01-12T14:10:54.855Z,12.40
2023-01-12T14:16:19.584Z,12.50
2023-01-12T14:21:27.519Z,12.40
2023-01-12T14:26:31.748Z,12.40
2023-01-12T14:31:39.514Z,12.40
2023-01-12T14:36:46.422Z,12.40
2023-01-12T14:42:09.631Z,12.40
2023-01-12T14:47:24.802Z,12.40
2023-01-12T14:52:32.810Z,12.50
2023-01-12T14:57:37.145Z,12.50
2023-01-12T15:02:42.049Z,12.50
2023-01-12T15:07:57.443Z,12.50
2023-01-12T15:13:22.948Z,12.50
2023-01-12T15:18:43.564Z,12.50
2023-01-12T15:24:07.087Z,12.50
2023-01-12T15:29:10.187Z,12.40
2023-01-12T15:34:13.382Z,12.40
2023-01-12T15:39:17.876Z,12.50
2023-01-12T15:44:22.501Z,12.50
2023-01-12T15:49:25.661Z,12.50
2023-01-12T15:54:30.199Z,12.50
2023-01-12T15:59:33.389Z,12.50
2023-01-12T16:04:42.731Z,12.40
2023-01-12T16:09:47.937Z,12.40
2023-01-12T16:14:51.242Z,12.40
2023-01-12T16:19:54.590Z,12.30
2023-01-12T16:24:59.092Z,12.30
2023-01-12T16:30:02.183Z,12.20
2023-01-12T16:35:05.772Z,12.20
2023-01-12T16:40:12.383Z,12.20
2023-01-12T16:45:15.495Z,12.10
2023-01-12T16:50:18.710Z,12.20
2023-01-12T16:55:23.275Z,12.20
2023-01-12T17:00:27.995Z,12.20
2023-01-12T17:05:31.438Z,12.10
2023-01-12T17:10:36.355Z,12.20
2023-01-12T17:15:40.391Z,12.10
2023-01-12T17:20:43.600Z,12.20
2023-01-12T17:25:48.320Z,12.20
2023-01-12T17:30:51.480Z,12.20
2023-01-12T17:35:54.603Z,12.20
2023-01-12T17:40:59.093Z,12.20
2023-01-12T17:46:03.732Z,12.20
2023-01-12T17:51:11.732Z,12.20
2023-01-12T17:56:16.210Z,12.20
2023-01-12T18:01:19.570Z,12.20
2023-01-12T18:06:27.041Z,12.20
2023-01-12T18:11:32.161Z,12.20
2023-01-12T18:16:35.951Z,12.10
2023-01-12T18:21:39.040Z,12.10
2023-01-12T18:26:43.589Z,12.10
2023-01-12T18:31:47.343Z,12.10
2023-01-12T18:36:50.503Z,12.00
2023-01-12T18:42:12.261Z,12.00
2023-01-12T18:47:33.749Z,12.00
2023-01-12T18:52:59.981Z,12.00
2023-01-12T18:58:04.540Z,12.00
2023-01-12T19:03:07.727Z,12.00
2023-01-12T19:08:24.809Z,12.00
2023-01-12T19:13:46.622Z,12.00
2023-01-12T19:18:49.772Z,12.00
2023-01-12T19:24:10.539Z,12.00
2023-01-12T19:29:15.020Z,11.90
2023-01-12T19:34:18.831Z,11.90
2023-01-12T19:39:34.146Z,11.80
2023-01-12T19:44:38.667Z,11.80
2023-01-12T19:49:41.823Z,11.70
2023-01-12T19:54:44.946Z,11.70
2023-01-12T19:59:49.421Z,11.70
2023-01-12T20:04:52.687Z,11.70
2023-01-12T20:09:55.798Z,11.60
2023-01-12T20:15:00.310Z,11.60
2023-01-12T20:20:04.189Z,11.60
2023-01-12T20:25:08.327Z,11.60
2023-01-12T20:30:16.380Z,11.60
2023-01-12T20:35:23.501Z,11.60
2023-01-12T20:40:26.703Z,11.60
2023-01-12T20:45:31.455Z,11.60
2023-01-12T20:50:34.839Z,11.60
2023-01-12T20:55:42.869Z,11.60
2023-01-12T21:00:49.315Z,11.50
2023-01-12T21:05:52.484Z,11.50
2023-01-12T21:10:55.889Z,11.40
2023-01-12T21:16:02.763Z,11.30
2023-01-12T21:21:07.033Z,11.30
2023-01-12T21:26:11.238Z,11.20
2023-01-12T21:31:16.037Z,11.20
2023-01-12T21:36:19.887Z,11.10
2023-01-12T21:41:24.916Z,11.10
2023-01-12T21:46:31.586Z,11.10
2023-01-12T21:51:34.727Z,11.10
2023-01-12T21:56:37.808Z,11.10
2023-01-12T22:01:42.363Z,11.00
2023-01-12T22:06:45.558Z,11.10
2023-01-12T22:11:48.659Z,11.10
2023-01-12T22:16:53.208Z,11.10
2023-01-12T22:21:56.310Z,11.10
2023-01-12T22:26:59.415Z,11.10
2023-01-12T22:32:03.970Z,11.10
2023-01-12T22:37:07.327Z,11.10
2023-01-12T22:42:10.439Z,11.10
2023-01-12T22:47:14.923Z,11.10
2023-01-12T22:52:18.056Z,11.10
2023-01-12T22:57:21.520Z,11.10
2023-01-12T23:02:43.877Z,11.10
2023-01-12T23:07:47.025Z,11.10
2023-01-12T23:13:04.010Z,11.10
2023-01-12T23:18:09.564Z,11.20
2023-01-12T23:23:15.209Z,11.20
2023-01-12T23:28:18.328Z,11.20
2023-01-12T23:33:22.983Z,11.20
2023-01-12T23:38:26.064Z,11.20
2023-01-12T23:43:29.305Z,11.20
2023-01-12T23:48:33.813Z,11.20
2023-01-12T23:53:36.892Z,11.20
2023-01-12T23:58:40.258Z,11.20
